63.2°F
Current conditions from King Hill
Updated every 5 minutes
 
  Monday July 28, 2014

Station Historical Data
Daily Summary for April 30, 2012 Units:  English    Metric   Both
« Previous Day
Next Day »
Daily Weekly Monthly Yearly Custom
  High: Low: Average:
Temperature: 57.4 °F 27.3 °F 44.9 °F
Dew Point: 36.0 °F 16.1 °F 25.2 °F
Humidity: 67% 29% 47%
Wind Speed: 5.0mph 1.0mph 1.4mph
Wind Gust: 12.0mph - -
Wind- - SSW
Pressure: 30.34 in 30.07 in -
Precipitation: 0.00 in    
Historical Graphs
 
 
Tabular Data for April 30, 2012
Time Temperature Dew Point Pressure Wind Wind Speed Wind Gust Humidity Daily Rainfall
00:04 35.5 °F 16.8 °F 30.25 in NNW 1.0 mph 4.0 mph 46% 0.00 in
00:09 35.6 °F 17.3 °F 30.25 in Calm   4.0 mph 47% 0.00 in
00:14 35.3 °F 17.6 °F 30.25 in Calm   1.0 mph 48% 0.00 in
00:19 35.1 °F 17.4 °F 30.25 in Calm   3.0 mph 48% 0.00 in
00:24 35.1 °F 16.4 °F 30.25 in NNW 1.0 mph 6.0 mph 46% 0.00 in
00:29 35.5 °F 16.8 °F 30.25 in NNE 2.0 mph 9.0 mph 46% 0.00 in
00:34 35.8 °F 17.0 °F 30.25 in Calm   9.0 mph 46% 0.00 in
00:39 35.7 °F 16.9 °F 30.25 in Calm   5.0 mph 46% 0.00 in
00:44 35.7 °F 16.9 °F 30.25 in Calm   7.0 mph 46% 0.00 in
00:49 35.6 °F 17.8 °F 30.25 in North 1.0 mph 7.0 mph 48% 0.00 in
00:59 35.8 °F 17.0 °F 30.24 in North 4.0 mph 12.0 mph 46% 0.00 in
01:04 36.0 °F 17.7 °F 30.24 in Calm   12.0 mph 47% 0.00 in
01:09 36.0 °F 16.7 °F 30.24 in NNE 1.0 mph 9.0 mph 45% 0.00 in
01:14 36.1 °F 16.8 °F 30.24 in North 3.0 mph 9.0 mph 45% 0.00 in
01:19 36.3 °F 18.0 °F 30.24 in Calm   9.0 mph 47% 0.00 in
01:24 36.4 °F 17.1 °F 30.24 in NNE 1.0 mph 10.0 mph 45% 0.00 in
01:29 36.3 °F 17.0 °F 30.23 in Calm   10.0 mph 45% 0.00 in
01:34 36.0 °F 17.7 °F 30.24 in Calm   10.0 mph 47% 0.00 in
01:39 35.8 °F 17.0 °F 30.24 in NNE 1.0 mph 6.0 mph 46% 0.00 in
01:44 35.6 °F 17.3 °F 30.24 in Calm   6.0 mph 47% 0.00 in
01:49 35.5 °F 16.8 °F 30.24 in NNW 2.0 mph 8.0 mph 46% 0.00 in
01:54 35.2 °F 17.5 °F 30.24 in NNW 2.0 mph 11.0 mph 48% 0.00 in
01:59 35.2 °F 17.0 °F 30.24 in NNW 1.0 mph 11.0 mph 47% 0.00 in
02:04 35.2 °F 17.0 °F 30.24 in NNW 1.0 mph 7.0 mph 47% 0.00 in
02:09 35.1 °F 16.9 °F 30.25 in Calm   6.0 mph 47% 0.00 in
02:14 35.2 °F 17.0 °F 30.25 in North 1.0 mph 6.0 mph 47% 0.00 in
02:19 35.5 °F 16.8 °F 30.25 in Calm   6.0 mph 46% 0.00 in
02:24 35.6 °F 16.3 °F 30.25 in North 1.0 mph 6.0 mph 45% 0.00 in
02:29 35.9 °F 16.1 °F 30.25 in North 2.0 mph 12.0 mph 44% 0.00 in
02:34 36.3 °F 16.5 °F 30.25 in NE 2.0 mph 12.0 mph 44% 0.00 in
02:39 36.4 °F 16.6 °F 30.25 in North 1.0 mph 8.0 mph 44% 0.00 in
02:44 36.1 °F 16.3 °F 30.25 in Calm   6.0 mph 44% 0.00 in
02:49 36.0 °F 17.2 °F 30.24 in NE 1.0 mph 7.0 mph 46% 0.00 in
02:54 35.8 °F 18.0 °F 30.24 in NE 1.0 mph 7.0 mph 48% 0.00 in
02:59 35.5 °F 17.7 °F 30.24 in Calm   6.0 mph 48% 0.00 in
03:04 35.2 °F 17.5 °F 30.24 in Calm   4.0 mph 48% 0.00 in
03:09 35.1 °F 17.9 °F 30.24 in Calm   5.0 mph 49% 0.00 in
03:14 35.1 °F 16.9 °F 30.24 in Calm   5.0 mph 47% 0.00 in
03:19 35.0 °F 17.3 °F 30.24 in Calm   4.0 mph 48% 0.00 in
03:24 34.8 °F 18.5 °F 30.24 in Calm     51% 0.00 in
03:29 34.3 °F 17.6 °F 30.24 in Calm     50% 0.00 in
03:34 33.8 °F 17.6 °F 30.24 in Calm     51% 0.00 in
03:44 32.9 °F 16.7 °F 30.25 in Calm     51% 0.00 in
03:49 32.8 °F 17.5 °F 30.25 in Calm     53% 0.00 in
03:59 32.6 °F 18.2 °F 30.25 in Calm     55% 0.00 in
04:04 32.3 °F 17.1 °F 30.25 in Calm     53% 0.00 in
04:09 32.5 °F 16.8 °F 30.25 in Calm     52% 0.00 in
04:14 32.2 °F 18.3 °F 30.25 in Calm     56% 0.00 in
04:19 31.0 °F 18.0 °F 30.25 in Calm     58% 0.00 in
04:24 30.4 °F 17.8 °F 30.25 in Calm     59% 0.00 in
04:29 30.5 °F 18.3 °F 30.25 in Calm     60% 0.00 in
04:34 30.5 °F 18.3 °F 30.24 in Calm     60% 0.00 in
04:39 30.4 °F 17.4 °F 30.24 in Calm     58% 0.00 in
04:44 30.1 °F 17.1 °F 30.24 in Calm     58% 0.00 in
04:49 29.9 °F 17.3 °F 30.25 in Calm     59% 0.00 in
04:54 29.9 °F 16.5 °F 30.25 in Calm     57% 0.00 in
04:59 30.1 °F 17.9 °F 30.24 in Calm     60% 0.00 in
05:04 30.3 °F 17.7 °F 30.24 in Calm     59% 0.00 in
05:14 29.8 °F 16.8 °F 30.25 in Calm     58% 0.00 in
05:19 29.4 °F 16.4 °F 30.24 in Calm     58% 0.00 in
05:24 29.4 °F 18.4 °F 30.25 in Calm     63% 0.00 in
05:29 29.5 °F 17.7 °F 30.25 in Calm     61% 0.00 in
05:34 29.1 °F 16.9 °F 30.25 in Calm     60% 0.00 in
05:40 28.8 °F 17.4 °F 30.26 in Calm     62% 0.00 in
05:49 27.7 °F 17.8 °F 30.26 in Calm     66% 0.00 in
05:54 27.5 °F 17.6 °F 30.27 in Calm     66% 0.00 in
05:59 27.5 °F 17.3 °F 30.27 in Calm     65% 0.00 in
06:04 27.3 °F 17.8 °F 30.27 in Calm     67% 0.00 in
06:09 27.3 °F 17.8 °F 30.27 in Calm     67% 0.00 in
06:14 27.6 °F 17.0 °F 30.27 in Calm     64% 0.00 in
06:19 28.5 °F 17.1 °F 30.28 in Calm     62% 0.00 in
06:24 29.3 °F 16.7 °F 30.28 in Calm     59% 0.00 in
06:29 30.0 °F 18.6 °F 30.28 in Calm     62% 0.00 in
06:34 30.2 °F 19.1 °F 30.29 in Calm     63% 0.00 in
06:39 30.2 °F 18.4 °F 30.29 in Calm     61% 0.00 in
06:44 30.8 °F 18.9 °F 30.29 in Calm     61% 0.00 in
06:49 31.1 °F 19.2 °F 30.29 in Calm     61% 0.00 in
06:59 30.9 °F 18.3 °F 30.30 in Calm     59% 0.00 in
07:04 31.5 °F 18.8 °F 30.30 in Calm     59% 0.00 in
07:09 32.3 °F 19.6 °F 30.30 in Calm     59% 0.00 in
07:14 32.9 °F 19.7 °F 30.31 in Calm     58% 0.00 in
07:19 34.1 °F 20.5 °F 30.31 in Calm     57% 0.00 in
07:24 35.3 °F 21.6 °F 30.30 in Calm     57% 0.00 in
07:29 36.5 °F 22.3 °F 30.30 in Calm     56% 0.00 in
07:34 37.7 °F 21.7 °F 30.30 in Calm     52% 0.00 in
07:39 38.8 °F 23.1 °F 30.31 in Calm     53% 0.00 in
07:44 39.9 °F 22.3 °F 30.31 in Calm   2.0 mph 49% 0.00 in
07:49 40.4 °F 21.8 °F 30.31 in Calm   2.0 mph 47% 0.00 in
07:54 40.9 °F 22.2 °F 30.31 in Calm   3.0 mph 47% 0.00 in
07:59 41.7 °F 21.9 °F 30.31 in Calm   3.0 mph 45% 0.00 in
08:04 42.0 °F 21.7 °F 30.32 in Calm   1.0 mph 44% 0.00 in
08:09 41.6 °F 21.3 °F 30.32 in NW 2.0 mph 5.0 mph 44% 0.00 in
08:14 41.1 °F 20.3 °F 30.32 in WNW 1.0 mph 5.0 mph 43% 0.00 in
08:19 41.1 °F 20.3 °F 30.32 in NW 1.0 mph 5.0 mph 43% 0.00 in
08:24 41.1 °F 20.3 °F 30.32 in Calm   4.0 mph 43% 0.00 in
08:29 41.5 °F 21.2 °F 30.33 in NW 1.0 mph 5.0 mph 44% 0.00 in
08:34 41.8 °F 20.9 °F 30.33 in Calm   5.0 mph 43% 0.00 in
08:44 41.7 °F 20.8 °F 30.33 in Calm   6.0 mph 43% 0.00 in
08:49 41.7 °F 21.4 °F 30.33 in Calm   5.0 mph 44% 0.00 in
08:54 42.0 °F 21.1 °F 30.33 in Calm   4.0 mph 43% 0.00 in
08:59 42.7 °F 21.8 °F 30.34 in Calm   4.0 mph 43% 0.00 in
09:04 42.9 °F 21.9 °F 30.34 in Calm   2.0 mph 43% 0.00 in
09:09 42.9 °F 21.9 °F 30.34 in Calm   2.0 mph 43% 0.00 in
09:14 43.5 °F 22.5 °F 30.34 in Calm   2.0 mph 43% 0.00 in
09:19 43.9 °F 22.8 °F 30.33 in Calm   2.0 mph 43% 0.00 in
09:24 44.5 °F 22.8 °F 30.33 in Calm   4.0 mph 42% 0.00 in
09:29 44.8 °F 23.1 °F 30.33 in Calm   4.0 mph 42% 0.00 in
09:34 45.2 °F 22.9 °F 30.33 in Calm   4.0 mph 41% 0.00 in
09:39 45.1 °F 22.2 °F 30.33 in Calm   4.0 mph 40% 0.00 in
09:44 45.3 °F 23.6 °F 30.32 in Calm     42% 0.00 in
09:49 45.4 °F 22.5 °F 30.32 in Calm   4.0 mph 40% 0.00 in
09:54 45.4 °F 23.1 °F 30.32 in Calm   4.0 mph 41% 0.00 in
09:59 45.2 °F 22.9 °F 30.32 in NE 1.0 mph 4.0 mph 41% 0.00 in
10:04 45.6 °F 23.3 °F 30.31 in Calm   4.0 mph 41% 0.00 in
10:14 46.8 °F 23.7 °F 30.30 in NNE 1.0 mph 4.0 mph 40% 0.00 in
10:19 46.7 °F 23.1 °F 30.30 in Calm   4.0 mph 39% 0.00 in
10:24 46.9 °F 25.6 °F 30.30 in NW 1.0 mph 6.0 mph 43% 0.00 in
10:29 47.6 °F 23.9 °F 30.30 in Calm   6.0 mph 39% 0.00 in
10:39 49.1 °F 25.2 °F 30.29 in North 1.0 mph 7.0 mph 39% 0.00 in
10:44 48.9 °F 25.0 °F 30.29 in Calm   7.0 mph 39% 0.00 in
10:49 49.0 °F 25.1 °F 30.29 in NW 1.0 mph 6.0 mph 39% 0.00 in
10:54 48.9 °F 25.0 °F 30.29 in NW 1.0 mph 4.0 mph 39% 0.00 in
10:59 49.2 °F 25.3 °F 30.30 in Calm   4.0 mph 39% 0.00 in
11:04 48.9 °F 23.8 °F 30.29 in WNW 2.0 mph 6.0 mph 37% 0.00 in
11:09 48.7 °F 24.2 °F 30.30 in Calm   6.0 mph 38% 0.00 in
11:14 49.2 °F 24.7 °F 30.30 in West 1.0 mph 6.0 mph 38% 0.00 in
11:19 49.2 °F 23.4 °F 30.29 in WNW 3.0 mph 8.0 mph 36% 0.00 in
11:24 47.9 °F 23.5 °F 30.30 in Calm   8.0 mph 38% 0.00 in
11:29 48.3 °F 26.3 °F 30.29 in Calm   5.0 mph 42% 0.00 in
11:34 49.1 °F 25.2 °F 30.29 in South 1.0 mph 6.0 mph 39% 0.00 in
11:39 49.1 °F 24.6 °F 30.29 in ENE 2.0 mph 7.0 mph 38% 0.00 in
11:44 48.8 °F 26.7 °F 30.28 in North 1.0 mph 7.0 mph 42% 0.00 in
11:49 50.0 °F 28.4 °F 30.28 in ESE 2.0 mph 8.0 mph 43% 0.00 in
11:54 50.5 °F 25.8 °F 30.28 in ENE 1.0 mph 8.0 mph 38% 0.00 in
11:59 50.1 °F 25.5 °F 30.28 in NE 1.0 mph 7.0 mph 38% 0.00 in
12:04 50.1 °F 24.8 °F 30.27 in Calm   6.0 mph 37% 0.00 in
12:09 50.2 °F 24.9 °F 30.26 in Calm   6.0 mph 37% 0.00 in
12:14 50.2 °F 25.6 °F 30.26 in Calm   6.0 mph 38% 0.00 in
12:24 50.6 °F 25.3 °F 30.25 in Calm   4.0 mph 37% 0.00 in
12:29 51.6 °F 26.8 °F 30.25 in Calm   4.0 mph 38% 0.00 in
12:34 51.8 °F 25.7 °F 30.25 in Calm   4.0 mph 36% 0.00 in
12:39 51.5 °F 25.4 °F 30.25 in Calm   5.0 mph 36% 0.00 in
12:44 52.3 °F 26.8 °F 30.25 in ENE 1.0 mph 5.0 mph 37% 0.00 in
12:49 52.5 °F 25.6 °F 30.24 in Calm   8.0 mph 35% 0.00 in
12:54 52.5 °F 25.6 °F 30.24 in Calm   8.0 mph 35% 0.00 in
12:59 52.6 °F 25.7 °F 30.24 in Calm   7.0 mph 35% 0.00 in
13:04 53.1 °F 25.5 °F 30.24 in Calm   7.0 mph 34% 0.00 in
13:09 53.7 °F 26.0 °F 30.24 in Calm   7.0 mph 34% 0.00 in
13:14 54.3 °F 26.5 °F 30.23 in Calm   3.0 mph 34% 0.00 in
13:19 54.9 °F 25.6 °F 30.23 in NNE 1.0 mph 5.0 mph 32% 0.00 in
13:24 54.8 °F 24.0 °F 30.23 in NE 1.0 mph 6.0 mph 30% 0.00 in
13:29 54.9 °F 27.1 °F 30.23 in Calm   6.0 mph 34% 0.00 in
13:34 55.0 °F 28.5 °F 30.23 in East 1.0 mph 7.0 mph 36% 0.00 in
13:39 55.1 °F 25.8 °F 30.22 in NE 1.0 mph 7.0 mph 32% 0.00 in
13:44 55.0 °F 26.4 °F 30.22 in Calm   6.0 mph 33% 0.00 in
13:49 54.9 °F 26.3 °F 30.22 in Calm   6.0 mph 33% 0.00 in
13:54 54.6 °F 26.1 °F 30.21 in North 1.0 mph 8.0 mph 33% 0.00 in
13:59 54.9 °F 26.3 °F 30.21 in Calm   8.0 mph 33% 0.00 in
14:04 55.4 °F 28.2 °F 30.21 in Calm   4.0 mph 35% 0.00 in
14:09 55.6 °F 27.7 °F 30.21 in Calm   6.0 mph 34% 0.00 in
14:14 55.3 °F 25.9 °F 30.20 in Calm   6.0 mph 32% 0.00 in
14:19 55.6 °F 27.7 °F 30.20 in Calm   2.0 mph 34% 0.00 in
14:24 56.3 °F 27.6 °F 30.20 in Calm   3.0 mph 33% 0.00 in
14:29 56.4 °F 26.1 °F 30.20 in Calm   5.0 mph 31% 0.00 in
14:34 56.2 °F 27.5 °F 30.20 in Calm   5.0 mph 33% 0.00 in
14:44 56.4 °F 27.7 °F 30.19 in Calm   3.0 mph 33% 0.00 in
14:49 56.5 °F 28.5 °F 30.19 in Calm   3.0 mph 34% 0.00 in
14:54 56.9 °F 28.1 °F 30.19 in Calm   5.0 mph 33% 0.00 in
14:59 57.0 °F 27.4 °F 30.19 in NW 1.0 mph 5.0 mph 32% 0.00 in
15:04 57.0 °F 28.2 °F 30.18 in Calm   4.0 mph 33% 0.00 in
15:14 57.4 °F 27.8 °F 30.18 in Calm   2.0 mph 32% 0.00 in
15:19 57.3 °F 25.3 °F 30.18 in Calm   6.0 mph 29% 0.00 in
15:24 56.4 °F 29.8 °F 30.18 in WSW 5.0 mph 8.0 mph 36% 0.00 in
15:29 55.8 °F 29.2 °F 30.18 in WSW 2.0 mph 9.0 mph 36% 0.00 in
15:34 55.6 °F 30.4 °F 30.17 in West 3.0 mph 9.0 mph 38% 0.00 in
15:39 55.4 °F 30.2 °F 30.17 in West 1.0 mph 9.0 mph 38% 0.00 in
15:44 55.5 °F 30.3 °F 30.17 in WNW 2.0 mph 9.0 mph 38% 0.00 in
15:49 55.4 °F 29.6 °F 30.17 in WNW 3.0 mph 8.0 mph 37% 0.00 in
15:54 55.6 °F 29.7 °F 30.16 in NW 1.0 mph 9.0 mph 37% 0.00 in
15:59 56.1 °F 30.8 °F 30.16 in WNW 1.0 mph 9.0 mph 38% 0.00 in
16:04 56.3 °F 32.9 °F 30.16 in NW 1.0 mph 6.0 mph 41% 0.00 in
16:09 56.7 °F 32.0 °F 30.16 in Calm   7.0 mph 39% 0.00 in
16:14 57.1 °F 32.4 °F 30.15 in Calm   7.0 mph 39% 0.00 in
16:19 57.1 °F 30.4 °F 30.15 in Calm   1.0 mph 36% 0.00 in
16:24 56.7 °F 30.7 °F 30.15 in Calm   2.0 mph 37% 0.00 in
16:29 56.3 °F 30.4 °F 30.15 in Calm   2.0 mph 37% 0.00 in
16:34 56.1 °F 29.5 °F 30.15 in Calm   2.0 mph 36% 0.00 in
16:39 56.3 °F 31.7 °F 30.15 in Calm     39% 0.00 in
16:44 56.0 °F 30.8 °F 30.15 in WNW 1.0 mph 5.0 mph 38% 0.00 in
16:49 55.7 °F 31.1 °F 30.15 in Calm   5.0 mph 39% 0.00 in
16:59 55.3 °F 30.1 °F 30.15 in Calm   5.0 mph 38% 0.00 in
17:09 55.2 °F 31.9 °F 30.15 in Calm     41% 0.00 in
17:14 55.1 °F 31.2 °F 30.15 in Calm     40% 0.00 in
17:19 54.8 °F 31.6 °F 30.15 in Calm     41% 0.00 in
17:24 54.4 °F 30.6 °F 30.15 in Calm     40% 0.00 in
17:29 54.4 °F 31.2 °F 30.15 in Calm     41% 0.00 in
17:34 54.5 °F 31.9 °F 30.15 in Calm     42% 0.00 in
17:39 54.6 °F 30.8 °F 30.14 in Calm   1.0 mph 40% 0.00 in
17:44 54.6 °F 30.8 °F 30.14 in Calm   1.0 mph 40% 0.00 in
17:49 54.6 °F 30.1 °F 30.14 in Calm     39% 0.00 in
17:54 54.6 °F 30.8 °F 30.14 in Calm   2.0 mph 40% 0.00 in
17:59 54.5 °F 31.3 °F 30.14 in Calm   2.0 mph 41% 0.00 in
18:04 54.4 °F 30.6 °F 30.14 in Calm   1.0 mph 40% 0.00 in
18:09 54.4 °F 31.8 °F 30.14 in WNW 1.0 mph 3.0 mph 42% 0.00 in
18:14 54.2 °F 32.2 °F 30.13 in Calm   4.0 mph 43% 0.00 in
18:19 53.9 °F 32.5 °F 30.13 in Calm   4.0 mph 44% 0.00 in
18:24 53.5 °F 32.7 °F 30.14 in Calm   3.0 mph 45% 0.00 in
18:29 53.1 °F 32.3 °F 30.14 in Calm   3.0 mph 45% 0.00 in
18:34 52.8 °F 32.1 °F 30.14 in Calm   2.0 mph 45% 0.00 in
18:44 52.4 °F 32.2 °F 30.14 in Calm     46% 0.00 in
18:49 52.3 °F 32.7 °F 30.14 in Calm     47% 0.00 in
18:54 51.9 °F 34.8 °F 30.14 in Calm     52% 0.00 in
18:59 51.3 °F 34.3 °F 30.14 in Calm     52% 0.00 in
19:04 50.8 °F 35.7 °F 30.14 in Calm     56% 0.00 in
19:09 50.4 °F 34.4 °F 30.14 in Calm     54% 0.00 in
19:14 50.1 °F 34.1 °F 30.13 in Calm     54% 0.00 in
19:19 49.8 °F 33.8 °F 30.13 in Calm     54% 0.00 in
19:24 49.5 °F 35.3 °F 30.13 in Calm     58% 0.00 in
19:29 49.3 °F 36.0 °F 30.13 in Calm     60% 0.00 in
19:34 49.1 °F 34.1 °F 30.13 in Calm   1.0 mph 56% 0.00 in
19:39 49.4 °F 32.0 °F 30.12 in Calm   2.0 mph 51% 0.00 in
19:44 49.7 °F 31.8 °F 30.12 in Calm   3.0 mph 50% 0.00 in
19:49 49.7 °F 32.3 °F 30.12 in Calm   3.0 mph 51% 0.00 in
19:54 49.8 °F 31.9 °F 30.12 in Calm   3.0 mph 50% 0.00 in
19:59 50.0 °F 32.1 °F 30.11 in Calm   3.0 mph 50% 0.00 in
20:04 50.0 °F 31.1 °F 30.11 in Calm   3.0 mph 48% 0.00 in
20:09 49.9 °F 31.5 °F 30.11 in Calm   3.0 mph 49% 0.00 in
20:14 49.8 °F 34.3 °F 30.11 in Calm   1.0 mph 55% 0.00 in
20:19 49.6 °F 33.6 °F 30.11 in Calm   1.0 mph 54% 0.00 in
20:24 49.3 °F 32.4 °F 30.11 in Calm     52% 0.00 in
20:29 49.1 °F 31.8 °F 30.11 in Calm     51% 0.00 in
20:34 49.0 °F 32.6 °F 30.11 in Calm     53% 0.00 in
20:39 48.7 °F 31.9 °F 30.11 in Calm     52% 0.00 in
20:44 48.5 °F 31.7 °F 30.11 in Calm     52% 0.00 in
20:49 48.4 °F 32.5 °F 30.11 in Calm     54% 0.00 in
20:54 48.2 °F 33.2 °F 30.11 in Calm   2.0 mph 56% 0.00 in
20:59 47.9 °F 34.7 °F 30.11 in ESE 1.0 mph 2.0 mph 60% 0.00 in
21:04 47.7 °F 34.5 °F 30.10 in ESE 2.0 mph 3.0 mph 60% 0.00 in
21:09 47.5 °F 33.9 °F 30.10 in Calm   3.0 mph 59% 0.00 in
21:14 47.4 °F 33.4 °F 30.10 in Calm   3.0 mph 58% 0.00 in
21:19 47.5 °F 32.6 °F 30.10 in Calm   3.0 mph 56% 0.00 in
21:24 47.7 °F 32.8 °F 30.09 in Calm     56% 0.00 in
21:29 47.7 °F 32.3 °F 30.09 in Calm   2.0 mph 55% 0.00 in
21:34 47.8 °F 32.4 °F 30.08 in Calm   2.0 mph 55% 0.00 in
21:39 47.8 °F 31.5 °F 30.08 in SE 1.0 mph 4.0 mph 53% 0.00 in
21:49 49.1 °F 30.8 °F 30.07 in SSW 1.0 mph 6.0 mph 49% 0.00 in
21:54 49.7 °F 30.8 °F 30.07 in Calm   6.0 mph 48% 0.00 in
21:59 50.1 °F 31.2 °F 30.07 in Calm   4.0 mph 48% 0.00 in
22:04 50.1 °F 30.7 °F 30.07 in Calm   3.0 mph 47% 0.00 in
22:09 50.1 °F 31.7 °F 30.07 in Calm     49% 0.00 in
22:14 49.9 °F 33.0 °F 30.07 in Calm     52% 0.00 in
22:19 49.5 °F 33.1 °F 30.07 in Calm     53% 0.00 in
22:24 49.1 °F 33.2 °F 30.07 in Calm     54% 0.00 in
22:29 48.7 °F 32.8 °F 30.07 in Calm     54% 0.00 in
22:34 48.5 °F 33.5 °F 30.07 in Calm     56% 0.00 in
22:39 48.2 °F 34.1 °F 30.07 in Calm     58% 0.00 in
22:44 48.0 °F 32.6 °F 30.07 in Calm     55% 0.00 in
22:49 47.9 °F 32.1 °F 30.07 in Calm     54% 0.00 in
22:54 47.9 °F 33.8 °F 30.07 in Calm     58% 0.00 in
22:59 48.1 °F 32.7 °F 30.07 in Calm     55% 0.00 in
23:04 48.2 °F 32.8 °F 30.07 in Calm   4.0 mph 55% 0.00 in
23:09 48.3 °F 31.5 °F 30.07 in Calm   4.0 mph 52% 0.00 in
23:14 48.6 °F 31.3 °F 30.07 in SSW 1.0 mph 3.0 mph 51% 0.00 in
23:19 48.9 °F 32.1 °F 30.08 in Calm   3.0 mph 52% 0.00 in
23:29 49.1 °F 31.8 °F 30.08 in Calm   1.0 mph 51% 0.00 in
23:34 49.3 °F 31.5 °F 30.07 in Calm   3.0 mph 50% 0.00 in
23:39 49.4 °F 31.0 °F 30.07 in Calm   3.0 mph 49% 0.00 in
23:44 49.5 °F 32.6 °F 30.08 in Calm   3.0 mph 52% 0.00 in
23:49 49.4 °F 31.5 °F 30.08 in Calm   3.0 mph 50% 0.00 in
23:54 49.2 °F 32.8 °F 30.08 in Calm     53% 0.00 in
23:59 49.0 °F 32.6 °F 30.08 in Calm     53% 0.00 in
Westford Weather
Compliments of Weather Underground

 
 
Current Radar Loop:

Copyright © WestfordWeather.net 2007-2014. All rights reserved.